sensor_id;sensor_type;location;lat;lon;timestamp;temperature;humidity
53878;DHT22;39790;53.144;6.424;2022-07-25T00:01:38;23.40;93.80
53878;DHT22;39790;53.144;6.424;2022-07-25T00:04:04;23.40;93.80
53878;DHT22;39790;53.144;6.424;2022-07-25T00:06:29;23.30;93.90
53878;DHT22;39790;53.144;6.424;2022-07-25T00:08:55;23.40;94.00
53878;DHT22;39790;53.144;6.424;2022-07-25T00:11:21;23.30;94.00
53878;DHT22;39790;53.144;6.424;2022-07-25T00:13:46;23.30;94.10
53878;DHT22;39790;53.144;6.424;2022-07-25T00:16:12;23.30;94.10
53878;DHT22;39790;53.144;6.424;2022-07-25T00:18:37;23.30;94.10
53878;DHT22;39790;53.144;6.424;2022-07-25T00:21:03;23.30;94.00
53878;DHT22;39790;53.144;6.424;2022-07-25T00:23:29;23.30;94.10
53878;DHT22;39790;53.144;6.424;2022-07-25T00:25:54;23.30;94.10
53878;DHT22;39790;53.144;6.424;2022-07-25T00:28:20;23.30;94.10
53878;DHT22;39790;53.144;6.424;2022-07-25T00:30:46;23.40;94.10
53878;DHT22;39790;53.144;6.424;2022-07-25T00:33:12;23.30;94.10
53878;DHT22;39790;53.144;6.424;2022-07-25T00:35:37;23.30;94.20
53878;DHT22;39790;53.144;6.424;2022-07-25T00:38:03;23.30;94.20
53878;DHT22;39790;53.144;6.424;2022-07-25T00:40:29;23.30;94.30
53878;DHT22;39790;53.144;6.424;2022-07-25T00:42:54;23.20;94.30
53878;DHT22;39790;53.144;6.424;2022-07-25T00:45:20;23.20;94.30
53878;DHT22;39790;53.144;6.424;2022-07-25T00:47:45;23.20;94.30
53878;DHT22;39790;53.144;6.424;2022-07-25T00:50:11;23.20;94.40
53878;DHT22;39790;53.144;6.424;2022-07-25T00:52:37;23.20;94.40
53878;DHT22;39790;53.144;6.424;2022-07-25T00:55:03;23.20;94.60
53878;DHT22;39790;53.144;6.424;2022-07-25T00:57:29;23.10;94.60
53878;DHT22;39790;53.144;6.424;2022-07-25T00:59:54;23.10;94.60
53878;DHT22;39790;53.144;6.424;2022-07-25T01:02:20;23.20;94.70
53878;DHT22;39790;53.144;6.424;2022-07-25T01:04:45;23.10;94.70
53878;DHT22;39790;53.144;6.424;2022-07-25T01:07:11;23.10;94.70
53878;DHT22;39790;53.144;6.424;2022-07-25T01:09:38;23.00;94.80
53878;DHT22;39790;53.144;6.424;2022-07-25T01:12:03;23.00;94.70
53878;DHT22;39790;53.144;6.424;2022-07-25T01:14:29;23.00;94.80
53878;DHT22;39790;53.144;6.424;2022-07-25T01:16:55;23.00;94.70
53878;DHT22;39790;53.144;6.424;2022-07-25T01:19:21;23.00;94.80
53878;DHT22;39790;53.144;6.424;2022-07-25T01:21:46;23.00;94.80
53878;DHT22;39790;53.144;6.424;2022-07-25T01:24:12;22.90;94.80
53878;DHT22;39790;53.144;6.424;2022-07-25T01:26:37;22.90;94.90
53878;DHT22;39790;53.144;6.424;2022-07-25T01:29:04;22.90;95.00
53878;DHT22;39790;53.144;6.424;2022-07-25T01:31:30;22.70;95.00
53878;DHT22;39790;53.144;6.424;2022-07-25T01:33:55;22.80;95.00
53878;DHT22;39790;53.144;6.424;2022-07-25T01:36:21;22.90;95.00
53878;DHT22;39790;53.144;6.424;2022-07-25T01:38:46;22.80;95.00
53878;DHT22;39790;53.144;6.424;2022-07-25T01:41:12;22.80;95.10
53878;DHT22;39790;53.144;6.424;2022-07-25T01:43:38;22.70;95.40
53878;DHT22;39790;53.144;6.424;2022-07-25T01:46:03;22.80;95.20
53878;DHT22;39790;53.144;6.424;2022-07-25T01:48:29;22.70;95.10
53878;DHT22;39790;53.144;6.424;2022-07-25T01:50:55;22.70;95.20
53878;DHT22;39790;53.144;6.424;2022-07-25T01:53:20;22.70;95.20
53878;DHT22;39790;53.144;6.424;2022-07-25T01:55:46;22.60;95.30
53878;DHT22;39790;53.144;6.424;2022-07-25T01:58:11;22.70;95.30
53878;DHT22;39790;53.144;6.424;2022-07-25T02:00:37;22.60;95.30
53878;DHT22;39790;53.144;6.424;2022-07-25T02:03:04;22.60;95.20
53878;DHT22;39790;53.144;6.424;2022-07-25T02:05:48;22.60;95.30
53878;DHT22;39790;53.144;6.424;2022-07-25T02:08:14;22.50;95.30
53878;DHT22;39790;53.144;6.424;2022-07-25T02:10:39;22.60;95.40
53878;DHT22;39790;53.144;6.424;2022-07-25T02:13:05;22.60;95.50
53878;DHT22;39790;53.144;6.424;2022-07-25T02:15:31;22.60;95.40
53878;DHT22;39790;53.144;6.424;2022-07-25T02:17:57;22.60;95.50
53878;DHT22;39790;53.144;6.424;2022-07-25T02:20:22;22.60;95.60
53878;DHT22;39790;53.144;6.424;2022-07-25T02:22:48;22.60;95.70
53878;DHT22;39790;53.144;6.424;2022-07-25T02:25:14;22.50;95.80
53878;DHT22;39790;53.144;6.424;2022-07-25T02:27:39;22.60;95.70
53878;DHT22;39790;53.144;6.424;2022-07-25T02:30:06;22.60;95.70
53878;DHT22;39790;53.144;6.424;2022-07-25T02:32:32;22.50;95.90
53878;DHT22;39790;53.144;6.424;2022-07-25T02:34:57;22.60;96.00
53878;DHT22;39790;53.144;6.424;2022-07-25T02:37:23;22.50;95.90
53878;DHT22;39790;53.144;6.424;2022-07-25T02:39:49;22.60;96.00
53878;DHT22;39790;53.144;6.424;2022-07-25T02:42:14;22.60;95.90
53878;DHT22;39790;53.144;6.424;2022-07-25T02:44:40;22.60;96.00
53878;DHT22;39790;53.144;6.424;2022-07-25T02:47:06;22.60;96.10
53878;DHT22;39790;53.144;6.424;2022-07-25T02:49:31;22.50;96.10
53878;DHT22;39790;53.144;6.424;2022-07-25T02:51:57;22.50;96.10
53878;DHT22;39790;53.144;6.424;2022-07-25T02:54:23;22.50;96.10
53878;DHT22;39790;53.144;6.424;2022-07-25T02:56:48;22.50;96.10
53878;DHT22;39790;53.144;6.424;2022-07-25T02:59:14;22.40;96.40
53878;DHT22;39790;53.144;6.424;2022-07-25T03:01:39;22.40;96.40
53878;DHT22;39790;53.144;6.424;2022-07-25T03:04:05;22.40;96.40
53878;DHT22;39790;53.144;6.424;2022-07-25T03:06:31;22.40;96.40
53878;DHT22;39790;53.144;6.424;2022-07-25T03:08:56;22.40;96.60
53878;DHT22;39790;53.144;6.424;2022-07-25T03:11:22;22.30;96.80
53878;DHT22;39790;53.144;6.424;2022-07-25T03:13:48;22.20;96.90
53878;DHT22;39790;53.144;6.424;2022-07-25T03:16:13;22.20;97.10
53878;DHT22;39790;53.144;6.424;2022-07-25T03:18:39;22.10;96.70
53878;DHT22;39790;53.144;6.424;2022-07-25T03:21:05;22.20;96.80
53878;DHT22;39790;53.144;6.424;2022-07-25T03:23:30;22.20;97.10
53878;DHT22;39790;53.144;6.424;2022-07-25T03:25:56;22.20;97.10
53878;DHT22;39790;53.144;6.424;2022-07-25T03:28:23;22.10;96.90
53878;DHT22;39790;53.144;6.424;2022-07-25T03:30:49;22.10;97.30
53878;DHT22;39790;53.144;6.424;2022-07-25T03:33:14;22.00;97.70
53878;DHT22;39790;53.144;6.424;2022-07-25T03:35:40;22.00;97.80
53878;DHT22;39790;53.144;6.424;2022-07-25T03:38:06;22.00;98.00
53878;DHT22;39790;53.144;6.424;2022-07-25T03:40:32;21.90;98.00
53878;DHT22;39790;53.144;6.424;2022-07-25T03:42:57;21.90;98.10
53878;DHT22;39790;53.144;6.424;2022-07-25T03:45:23;21.90;98.20
53878;DHT22;39790;53.144;6.424;2022-07-25T03:47:49;21.80;98.40
53878;DHT22;39790;53.144;6.424;2022-07-25T03:50:14;21.80;98.50
53878;DHT22;39790;53.144;6.424;2022-07-25T03:52:40;21.80;98.60
53878;DHT22;39790;53.144;6.424;2022-07-25T03:55:07;21.80;98.50
53878;DHT22;39790;53.144;6.424;2022-07-25T03:57:33;21.80;98.40
53878;DHT22;39790;53.144;6.424;2022-07-25T03:59:58;21.80;98.30
53878;DHT22;39790;53.144;6.424;2022-07-25T04:02:24;21.90;98.40
53878;DHT22;39790;53.144;6.424;2022-07-25T04:04:49;21.80;98.60
53878;DHT22;39790;53.144;6.424;2022-07-25T04:07:16;21.80;98.70
53878;DHT22;39790;53.144;6.424;2022-07-25T04:09:41;21.80;98.50
53878;DHT22;39790;53.144;6.424;2022-07-25T04:12:07;21.80;98.40
53878;DHT22;39790;53.144;6.424;2022-07-25T04:14:33;21.90;98.40
53878;DHT22;39790;53.144;6.424;2022-07-25T04:16:58;21.90;98.40
53878;DHT22;39790;53.144;6.424;2022-07-25T04:19:24;22.00;98.30
53878;DHT22;39790;53.144;6.424;2022-07-25T04:21:49;22.00;98.20
53878;DHT22;39790;53.144;6.424;2022-07-25T04:24:15;22.00;98.20
53878;DHT22;39790;53.144;6.424;2022-07-25T04:26:41;22.00;98.30
53878;DHT22;39790;53.144;6.424;2022-07-25T04:29:06;22.00;98.20
53878;DHT22;39790;53.144;6.424;2022-07-25T04:31:32;22.00;98.20
53878;DHT22;39790;53.144;6.424;2022-07-25T04:33:58;22.00;98.30
53878;DHT22;39790;53.144;6.424;2022-07-25T04:36:23;22.00;98.30
53878;DHT22;39790;53.144;6.424;2022-07-25T04:38:49;21.90;98.30
53878;DHT22;39790;53.144;6.424;2022-07-25T04:41:14;22.00;98.70
53878;DHT22;39790;53.144;6.424;2022-07-25T04:43:40;22.00;98.30
53878;DHT22;39790;53.144;6.424;2022-07-25T04:46:05;22.00;98.20
53878;DHT22;39790;53.144;6.424;2022-07-25T04:48:31;22.10;98.10
53878;DHT22;39790;53.144;6.424;2022-07-25T04:50:57;22.20;98.10
53878;DHT22;39790;53.144;6.424;2022-07-25T04:53:22;22.10;98.10
53878;DHT22;39790;53.144;6.424;2022-07-25T04:55:48;22.10;98.00
53878;DHT22;39790;53.144;6.424;2022-07-25T04:58:14;22.10;98.00
53878;DHT22;39790;53.144;6.424;2022-07-25T05:00:40;22.00;98.10
53878;DHT22;39790;53.144;6.424;2022-07-25T05:03:06;22.10;98.00
53878;DHT22;39790;53.144;6.424;2022-07-25T05:05:31;22.10;98.10
53878;DHT22;39790;53.144;6.424;2022-07-25T05:07:58;22.10;98.00
53878;DHT22;39790;53.144;6.424;2022-07-25T05:10:27;22.20;97.90
53878;DHT22;39790;53.144;6.424;2022-07-25T05:12:54;22.30;97.70
53878;DHT22;39790;53.144;6.424;2022-07-25T05:15:19;22.30;97.40
53878;DHT22;39790;53.144;6.424;2022-07-25T05:17:45;22.50;97.40
53878;DHT22;39790;53.144;6.424;2022-07-25T05:20:12;22.60;97.30
53878;DHT22;39790;53.144;6.424;2022-07-25T05:22:38;22.60;97.30
53878;DHT22;39790;53.144;6.424;2022-07-25T05:25:10;22.60;97.20
53878;DHT22;39790;53.144;6.424;2022-07-25T05:27:37;22.70;97.00
53878;DHT22;39790;53.144;6.424;2022-07-25T05:30:03;22.70;96.90
53878;DHT22;39790;53.144;6.424;2022-07-25T05:32:30;22.80;96.70
53878;DHT22;39790;53.144;6.424;2022-07-25T05:34:55;22.80;96.60
53878;DHT22;39790;53.144;6.424;2022-07-25T05:37:21;22.90;96.50
53878;DHT22;39790;53.144;6.424;2022-07-25T05:39:46;22.90;96.50
53878;DHT22;39790;53.144;6.424;2022-07-25T05:42:12;22.90;96.50
53878;DHT22;39790;53.144;6.424;2022-07-25T05:44:38;22.90;96.60
53878;DHT22;39790;53.144;6.424;2022-07-25T05:47:08;22.90;96.50
53878;DHT22;39790;53.144;6.424;2022-07-25T05:49:34;22.80;96.70
53878;DHT22;39790;53.144;6.424;2022-07-25T05:52:00;22.90;96.70
53878;DHT22;39790;53.144;6.424;2022-07-25T05:54:26;22.90;96.70
53878;DHT22;39790;53.144;6.424;2022-07-25T05:56:52;22.90;96.90
53878;DHT22;39790;53.144;6.424;2022-07-25T05:59:17;22.90;96.80
53878;DHT22;39790;53.144;6.424;2022-07-25T06:01:43;23.00;96.50
53878;DHT22;39790;53.144;6.424;2022-07-25T06:04:08;23.10;96.60
53878;DHT22;39790;53.144;6.424;2022-07-25T06:06:34;23.10;96.50
53878;DHT22;39790;53.144;6.424;2022-07-25T06:09:00;23.20;96.60
53878;DHT22;39790;53.144;6.424;2022-07-25T06:11:25;23.20;96.50
53878;DHT22;39790;53.144;6.424;2022-07-25T06:13:53;23.30;96.30
53878;DHT22;39790;53.144;6.424;2022-07-25T06:16:19;23.40;96.20
53878;DHT22;39790;53.144;6.424;2022-07-25T06:18:44;23.50;96.20
53878;DHT22;39790;53.144;6.424;2022-07-25T06:21:10;23.50;96.00
53878;DHT22;39790;53.144;6.424;2022-07-25T06:23:35;23.60;96.10
53878;DHT22;39790;53.144;6.424;2022-07-25T06:26:01;23.60;96.00
53878;DHT22;39790;53.144;6.424;2022-07-25T06:28:27;23.80;95.80
53878;DHT22;39790;53.144;6.424;2022-07-25T06:30:52;24.00;95.70
53878;DHT22;39790;53.144;6.424;2022-07-25T06:33:18;24.20;95.50
53878;DHT22;39790;53.144;6.424;2022-07-25T06:35:43;24.40;95.40
53878;DHT22;39790;53.144;6.424;2022-07-25T06:38:09;24.80;95.00
53878;DHT22;39790;53.144;6.424;2022-07-25T06:40:35;25.10;94.50
53878;DHT22;39790;53.144;6.424;2022-07-25T06:43:00;25.40;94.40
53878;DHT22;39790;53.144;6.424;2022-07-25T06:45:26;25.60;93.80
53878;DHT22;39790;53.144;6.424;2022-07-25T06:47:51;25.80;93.50
53878;DHT22;39790;53.144;6.424;2022-07-25T06:50:17;26.00;93.20
53878;DHT22;39790;53.144;6.424;2022-07-25T06:52:44;26.20;93.00
53878;DHT22;39790;53.144;6.424;2022-07-25T06:55:12;26.10;92.90
53878;DHT22;39790;53.144;6.424;2022-07-25T06:57:38;26.00;92.90
53878;DHT22;39790;53.144;6.424;2022-07-25T07:00:05;26.00;92.90
53878;DHT22;39790;53.144;6.424;2022-07-25T07:02:34;25.90;92.90
53878;DHT22;39790;53.144;6.424;2022-07-25T07:05:00;25.80;92.70
53878;DHT22;39790;53.144;6.424;2022-07-25T07:07:26;25.70;92.80
53878;DHT22;39790;53.144;6.424;2022-07-25T07:09:52;25.60;92.90
53878;DHT22;39790;53.144;6.424;2022-07-25T07:12:17;25.60;93.00
53878;DHT22;39790;53.144;6.424;2022-07-25T07:14:43;25.50;93.30
53878;DHT22;39790;53.144;6.424;2022-07-25T07:17:09;25.40;93.30
53878;DHT22;39790;53.144;6.424;2022-07-25T07:19:35;25.40;93.30
53878;DHT22;39790;53.144;6.424;2022-07-25T07:22:03;25.40;93.50
53878;DHT22;39790;53.144;6.424;2022-07-25T07:24:28;25.50;93.50
53878;DHT22;39790;53.144;6.424;2022-07-25T07:26:54;25.40;93.50
53878;DHT22;39790;53.144;6.424;2022-07-25T07:29:20;25.40;93.40
53878;DHT22;39790;53.144;6.424;2022-07-25T07:31:45;25.40;93.60
53878;DHT22;39790;53.144;6.424;2022-07-25T07:34:11;25.60;93.70
53878;DHT22;39790;53.144;6.424;2022-07-25T07:36:38;26.00;94.10
53878;DHT22;39790;53.144;6.424;2022-07-25T07:39:03;27.00;93.40
53878;DHT22;39790;53.144;6.424;2022-07-25T07:41:29;27.60;92.30
53878;DHT22;39790;53.144;6.424;2022-07-25T07:43:55;27.70;91.80
53878;DHT22;39790;53.144;6.424;2022-07-25T07:46:20;27.60;91.80
53878;DHT22;39790;53.144;6.424;2022-07-25T07:48:46;27.60;91.90
53878;DHT22;39790;53.144;6.424;2022-07-25T07:51:11;27.70;91.50
53878;DHT22;39790;53.144;6.424;2022-07-25T07:53:37;27.70;90.90
53878;DHT22;39790;53.144;6.424;2022-07-25T07:56:22;27.80;90.90
53878;DHT22;39790;53.144;6.424;2022-07-25T07:58:47;27.90;91.00
53878;DHT22;39790;53.144;6.424;2022-07-25T08:01:13;27.80;90.90
53878;DHT22;39790;53.144;6.424;2022-07-25T08:03:39;27.50;90.90
53878;DHT22;39790;53.144;6.424;2022-07-25T08:06:04;27.40;90.90
53878;DHT22;39790;53.144;6.424;2022-07-25T08:08:31;27.30;90.80
53878;DHT22;39790;53.144;6.424;2022-07-25T08:10:57;27.30;90.70
53878;DHT22;39790;53.144;6.424;2022-07-25T08:13:25;27.50;90.50
53878;DHT22;39790;53.144;6.424;2022-07-25T08:15:57;27.70;90.40
53878;DHT22;39790;53.144;6.424;2022-07-25T08:18:24;27.80;90.20
53878;DHT22;39790;53.144;6.424;2022-07-25T08:20:51;27.90;90.20
53878;DHT22;39790;53.144;6.424;2022-07-25T08:23:17;28.00;89.60
53878;DHT22;39790;53.144;6.424;2022-07-25T08:25:44;28.00;89.00
53878;DHT22;39790;53.144;6.424;2022-07-25T08:28:11;27.90;88.80
53878;DHT22;39790;53.144;6.424;2022-07-25T08:30:37;27.80;87.60
53878;DHT22;39790;53.144;6.424;2022-07-25T08:33:06;27.60;86.40
53878;DHT22;39790;53.144;6.424;2022-07-25T08:35:33;27.30;85.70
53878;DHT22;39790;53.144;6.424;2022-07-25T08:37:59;27.10;85.90
53878;DHT22;39790;53.144;6.424;2022-07-25T08:40:27;26.80;86.60
53878;DHT22;39790;53.144;6.424;2022-07-25T08:42:53;26.60;86.90
53878;DHT22;39790;53.144;6.424;2022-07-25T08:45:20;26.40;87.10
53878;DHT22;39790;53.144;6.424;2022-07-25T08:47:48;26.20;87.60
53878;DHT22;39790;53.144;6.424;2022-07-25T08:50:18;26.10;88.20
53878;DHT22;39790;53.144;6.424;2022-07-25T08:52:48;26.00;88.50
53878;DHT22;39790;53.144;6.424;2022-07-25T08:55:17;25.90;89.10
53878;DHT22;39790;53.144;6.424;2022-07-25T08:57:45;25.80;89.60
53878;DHT22;39790;53.144;6.424;2022-07-25T09:00:15;25.70;89.60
53878;DHT22;39790;53.144;6.424;2022-07-25T09:02:41;25.70;89.30
53878;DHT22;39790;53.144;6.424;2022-07-25T09:05:07;25.80;89.10
53878;DHT22;39790;53.144;6.424;2022-07-25T09:07:37;26.00;88.90
53878;DHT22;39790;53.144;6.424;2022-07-25T09:10:13;26.30;88.80
53878;DHT22;39790;53.144;6.424;2022-07-25T09:12:40;26.70;88.50
53878;DHT22;39790;53.144;6.424;2022-07-25T09:15:06;26.90;88.20
53878;DHT22;39790;53.144;6.424;2022-07-25T09:17:34;26.90;87.40
53878;DHT22;39790;53.144;6.424;2022-07-25T09:20:00;26.90;87.00
53878;DHT22;39790;53.144;6.424;2022-07-25T09:22:25;26.90;87.60
53878;DHT22;39790;53.144;6.424;2022-07-25T09:24:52;26.80;88.00
53878;DHT22;39790;53.144;6.424;2022-07-25T09:27:17;27.00;88.00
53878;DHT22;39790;53.144;6.424;2022-07-25T09:29:43;27.10;86.80
53878;DHT22;39790;53.144;6.424;2022-07-25T09:32:21;27.30;85.90
53878;DHT22;39790;53.144;6.424;2022-07-25T09:34:48;27.50;84.30
53878;DHT22;39790;53.144;6.424;2022-07-25T09:37:16;27.70;83.40
53878;DHT22;39790;53.144;6.424;2022-07-25T09:42:26;27.60;83.00
53878;DHT22;39790;53.144;6.424;2022-07-25T09:47:34;28.00;81.90
53878;DHT22;39790;53.144;6.424;2022-07-25T09:50:00;28.10;81.20
53878;DHT22;39790;53.144;6.424;2022-07-25T09:52:26;28.10;81.10
53878;DHT22;39790;53.144;6.424;2022-07-25T09:54:52;28.10;80.50
53878;DHT22;39790;53.144;6.424;2022-07-25T09:57:20;28.10;80.50
53878;DHT22;39790;53.144;6.424;2022-07-25T09:59:46;28.10;80.10
53878;DHT22;39790;53.144;6.424;2022-07-25T10:02:40;28.10;79.90
53878;DHT22;39790;53.144;6.424;2022-07-25T10:07:46;28.20;80.50
53878;DHT22;39790;53.144;6.424;2022-07-25T10:10:39;28.20;81.00
53878;DHT22;39790;53.144;6.424;2022-07-25T10:13:11;28.00;81.10
53878;DHT22;39790;53.144;6.424;2022-07-25T10:15:51;27.70;81.60
53878;DHT22;39790;53.144;6.424;2022-07-25T10:18:19;27.50;82.10
53878;DHT22;39790;53.144;6.424;2022-07-25T10:20:47;27.30;82.90
53878;DHT22;39790;53.144;6.424;2022-07-25T10:23:21;27.10;83.20
53878;DHT22;39790;53.144;6.424;2022-07-25T10:31:20;26.50;85.70
53878;DHT22;39790;53.144;6.424;2022-07-25T10:33:57;26.40;88.00
53878;DHT22;39790;53.144;6.424;2022-07-25T10:36:25;26.20;90.00
53878;DHT22;39790;53.144;6.424;2022-07-25T10:38:58;26.00;91.10
53878;DHT22;39790;53.144;6.424;2022-07-25T10:41:24;25.80;91.70
53878;DHT22;39790;53.144;6.424;2022-07-25T10:43:50;25.60;92.20
53878;DHT22;39790;53.144;6.424;2022-07-25T10:46:19;25.50;92.50
53878;DHT22;39790;53.144;6.424;2022-07-25T10:49:01;25.50;92.70
53878;DHT22;39790;53.144;6.424;2022-07-25T10:51:32;25.50;93.10
53878;DHT22;39790;53.144;6.424;2022-07-25T10:53:59;25.70;93.40
53878;DHT22;39790;53.144;6.424;2022-07-25T10:56:27;25.90;93.30
53878;DHT22;39790;53.144;6.424;2022-07-25T10:58:58;26.30;93.80
53878;DHT22;39790;53.144;6.424;2022-07-25T11:01:29;26.70;93.40
53878;DHT22;39790;53.144;6.424;2022-07-25T11:03:58;26.80;93.40
53878;DHT22;39790;53.144;6.424;2022-07-25T11:08:57;26.60;92.90
53878;DHT22;39790;53.144;6.424;2022-07-25T11:11:36;26.50;93.00
53878;DHT22;39790;53.144;6.424;2022-07-25T11:14:03;26.50;93.10
53878;DHT22;39790;53.144;6.424;2022-07-25T11:16:29;26.30;93.20
53878;DHT22;39790;53.144;6.424;2022-07-25T11:18:55;26.20;93.20
53878;DHT22;39790;53.144;6.424;2022-07-25T11:21:20;26.20;93.30
53878;DHT22;39790;53.144;6.424;2022-07-25T11:23:50;26.20;93.20
53878;DHT22;39790;53.144;6.424;2022-07-25T11:26:16;26.40;93.10
53878;DHT22;39790;53.144;6.424;2022-07-25T11:28:44;26.60;93.00
53878;DHT22;39790;53.144;6.424;2022-07-25T11:31:11;26.80;92.70
53878;DHT22;39790;53.144;6.424;2022-07-25T11:33:40;26.90;92.40
53878;DHT22;39790;53.144;6.424;2022-07-25T11:36:08;27.10;92.20
53878;DHT22;39790;53.144;6.424;2022-07-25T11:38:35;27.10;91.90
53878;DHT22;39790;53.144;6.424;2022-07-25T11:41:01;26.90;91.50
53878;DHT22;39790;53.144;6.424;2022-07-25T11:43:27;26.70;91.40
53878;DHT22;39790;53.144;6.424;2022-07-25T11:46:05;26.50;91.40
53878;DHT22;39790;53.144;6.424;2022-07-25T11:48:39;26.30;91.30
53878;DHT22;39790;53.144;6.424;2022-07-25T11:51:13;26.10;91.50
53878;DHT22;39790;53.144;6.424;2022-07-25T11:53:42;25.90;91.60
53878;DHT22;39790;53.144;6.424;2022-07-25T11:56:14;25.80;91.60
53878;DHT22;39790;53.144;6.424;2022-07-25T11:58:40;25.90;91.50
53878;DHT22;39790;53.144;6.424;2022-07-25T12:01:13;26.00;91.80
53878;DHT22;39790;53.144;6.424;2022-07-25T12:03:40;26.10;91.70
53878;DHT22;39790;53.144;6.424;2022-07-25T12:06:10;26.30;91.20
53878;DHT22;39790;53.144;6.424;2022-07-25T12:08:38;26.40;91.00
53878;DHT22;39790;53.144;6.424;2022-07-25T12:11:15;26.50;90.80
53878;DHT22;39790;53.144;6.424;2022-07-25T12:13:41;26.50;90.40
53878;DHT22;39790;53.144;6.424;2022-07-25T12:16:07;26.30;90.20
53878;DHT22;39790;53.144;6.424;2022-07-25T12:18:32;26.20;90.40
53878;DHT22;39790;53.144;6.424;2022-07-25T12:20:58;26.40;90.70
53878;DHT22;39790;53.144;6.424;2022-07-25T12:23:24;26.60;90.80
53878;DHT22;39790;53.144;6.424;2022-07-25T12:25:49;26.90;90.60
53878;DHT22;39790;53.144;6.424;2022-07-25T12:28:15;26.90;89.40
53878;DHT22;39790;53.144;6.424;2022-07-25T12:30:42;26.90;89.00
53878;DHT22;39790;53.144;6.424;2022-07-25T12:33:08;26.80;88.80
53878;DHT22;39790;53.144;6.424;2022-07-25T12:35:34;26.80;88.90
53878;DHT22;39790;53.144;6.424;2022-07-25T12:38:01;26.60;88.10
53878;DHT22;39790;53.144;6.424;2022-07-25T12:40:27;26.50;87.10
53878;DHT22;39790;53.144;6.424;2022-07-25T12:42:53;26.40;87.10
53878;DHT22;39790;53.144;6.424;2022-07-25T12:45:18;26.30;87.30
53878;DHT22;39790;53.144;6.424;2022-07-25T12:47:46;26.30;87.30
53878;DHT22;39790;53.144;6.424;2022-07-25T12:50:12;26.30;87.00
53878;DHT22;39790;53.144;6.424;2022-07-25T12:52:39;26.10;86.40
53878;DHT22;39790;53.144;6.424;2022-07-25T12:55:06;26.30;87.10
53878;DHT22;39790;53.144;6.424;2022-07-25T12:57:32;26.40;87.10
53878;DHT22;39790;53.144;6.424;2022-07-25T12:59:59;26.60;86.10
53878;DHT22;39790;53.144;6.424;2022-07-25T13:02:24;26.70;85.30
53878;DHT22;39790;53.144;6.424;2022-07-25T13:04:50;26.80;84.80
53878;DHT22;39790;53.144;6.424;2022-07-25T13:07:16;26.70;84.60
53878;DHT22;39790;53.144;6.424;2022-07-25T13:09:41;26.60;84.70
53878;DHT22;39790;53.144;6.424;2022-07-25T13:12:07;26.50;85.10
53878;DHT22;39790;53.144;6.424;2022-07-25T13:14:33;26.40;85.00
53878;DHT22;39790;53.144;6.424;2022-07-25T13:17:00;26.40;85.50
53878;DHT22;39790;53.144;6.424;2022-07-25T13:19:26;26.40;85.30
53878;DHT22;39790;53.144;6.424;2022-07-25T13:21:52;26.30;85.30
53878;DHT22;39790;53.144;6.424;2022-07-25T13:24:18;26.30;85.70
53878;DHT22;39790;53.144;6.424;2022-07-25T13:26:44;26.20;84.90
53878;DHT22;39790;53.144;6.424;2022-07-25T13:29:09;26.20;85.20
53878;DHT22;39790;53.144;6.424;2022-07-25T13:31:37;26.10;84.50
53878;DHT22;39790;53.144;6.424;2022-07-25T13:34:03;26.10;84.40
53878;DHT22;39790;53.144;6.424;2022-07-25T13:36:28;26.20;84.80
53878;DHT22;39790;53.144;6.424;2022-07-25T13:38:54;26.20;84.70
53878;DHT22;39790;53.144;6.424;2022-07-25T13:41:20;26.30;84.70
53878;DHT22;39790;53.144;6.424;2022-07-25T13:43:45;26.30;84.60
53878;DHT22;39790;53.144;6.424;2022-07-25T13:46:12;26.40;84.70
53878;DHT22;39790;53.144;6.424;2022-07-25T13:48:37;26.40;84.80
53878;DHT22;39790;53.144;6.424;2022-07-25T13:51:03;26.20;85.10
53878;DHT22;39790;53.144;6.424;2022-07-25T13:53:28;26.10;85.40
53878;DHT22;39790;53.144;6.424;2022-07-25T13:55:55;25.90;85.80
53878;DHT22;39790;53.144;6.424;2022-07-25T13:58:22;25.80;85.80
53878;DHT22;39790;53.144;6.424;2022-07-25T14:00:48;25.80;85.80
53878;DHT22;39790;53.144;6.424;2022-07-25T14:03:13;25.80;85.60
53878;DHT22;39790;53.144;6.424;2022-07-25T14:05:39;25.80;85.70
53878;DHT22;39790;53.144;6.424;2022-07-25T14:08:05;25.90;85.70
53878;DHT22;39790;53.144;6.424;2022-07-25T14:10:31;26.10;85.50
53878;DHT22;39790;53.144;6.424;2022-07-25T14:12:57;26.10;84.90
53878;DHT22;39790;53.144;6.424;2022-07-25T14:15:22;26.20;84.40
53878;DHT22;39790;53.144;6.424;2022-07-25T14:17:48;26.20;84.20
53878;DHT22;39790;53.144;6.424;2022-07-25T14:20:14;26.20;84.50
53878;DHT22;39790;53.144;6.424;2022-07-25T14:22:39;26.20;84.10
53878;DHT22;39790;53.144;6.424;2022-07-25T14:25:07;26.10;83.30
53878;DHT22;39790;53.144;6.424;2022-07-25T14:27:33;26.00;83.10
53878;DHT22;39790;53.144;6.424;2022-07-25T14:29:59;26.00;82.90
53878;DHT22;39790;53.144;6.424;2022-07-25T14:32:26;26.00;83.00
53878;DHT22;39790;53.144;6.424;2022-07-25T14:34:52;26.10;83.30
53878;DHT22;39790;53.144;6.424;2022-07-25T14:37:19;26.20;82.20
53878;DHT22;39790;53.144;6.424;2022-07-25T14:39:45;26.10;81.50
53878;DHT22;39790;53.144;6.424;2022-07-25T14:42:11;26.10;81.70
53878;DHT22;39790;53.144;6.424;2022-07-25T14:44:37;26.20;81.50
53878;DHT22;39790;53.144;6.424;2022-07-25T14:47:03;26.30;81.00
53878;DHT22;39790;53.144;6.424;2022-07-25T14:49:29;26.30;80.50
53878;DHT22;39790;53.144;6.424;2022-07-25T14:51:55;26.20;80.30
53878;DHT22;39790;53.144;6.424;2022-07-25T14:54:21;26.10;80.50
53878;DHT22;39790;53.144;6.424;2022-07-25T14:56:46;26.10;80.80
53878;DHT22;39790;53.144;6.424;2022-07-25T14:59:12;26.00;80.10
53878;DHT22;39790;53.144;6.424;2022-07-25T15:01:38;26.00;80.20
53878;DHT22;39790;53.144;6.424;2022-07-25T15:04:04;25.90;80.20
53878;DHT22;39790;53.144;6.424;2022-07-25T15:06:30;25.80;80.10
53878;DHT22;39790;53.144;6.424;2022-07-25T15:08:56;25.80;80.40
53878;DHT22;39790;53.144;6.424;2022-07-25T15:11:22;25.80;80.90
53878;DHT22;39790;53.144;6.424;2022-07-25T15:13:48;25.70;80.90
53878;DHT22;39790;53.144;6.424;2022-07-25T15:16:15;25.80;80.90
53878;DHT22;39790;53.144;6.424;2022-07-25T15:18:41;25.60;80.80
53878;DHT22;39790;53.144;6.424;2022-07-25T15:21:08;25.50;80.80
53878;DHT22;39790;53.144;6.424;2022-07-25T15:23:34;25.50;81.50
53878;DHT22;39790;53.144;6.424;2022-07-25T15:26:00;25.40;82.00
53878;DHT22;39790;53.144;6.424;2022-07-25T15:28:26;25.20;81.30
53878;DHT22;39790;53.144;6.424;2022-07-25T15:30:52;25.20;81.00
53878;DHT22;39790;53.144;6.424;2022-07-25T15:33:18;25.10;81.50
53878;DHT22;39790;53.144;6.424;2022-07-25T15:35:44;24.90;82.20
53878;DHT22;39790;53.144;6.424;2022-07-25T15:38:12;24.90;83.00
53878;DHT22;39790;53.144;6.424;2022-07-25T15:40:38;24.90;83.20
53878;DHT22;39790;53.144;6.424;2022-07-25T15:43:04;25.00;83.30